LZKZ/KSC METAR and TAF weather

Enter ICAO airport designator
Station Type Date Time Source
LZKZ METAR 2022/05/24 11:00 UTC NOAA

LZKZ 241100Z 24009KT 200V270 CAVOK 21/07 Q1011 NOSIG


Station Type Date Time Source
LZKZ Decoded METAR 2022/05/24 11:00 UTC NOAA

Kosice, Barca, Slovakia (LZKZ) 48-39-47N 021-14-28E
May 24, 2022 - 07:00 AM EDT / 2022.05.24 1100 UTC
Wind: from the WSW (240 degrees) at 10 MPH (9 KT) (direction variable):0
Visibility: greater than 7 mile(s):0
Temperature: 69 F (21 C)
Dew Point: 44 F (7 C)
Relative Humidity: 40%
Pressure (altimeter): 29.85 in. Hg (1011 hPa)
ob: LZKZ 241100Z 24009KT 200V270 CAVOK 21/07 Q1011 NOSIG
cycle: 11

Station Type Date Time Source
LZKZ TAF 2022/05/24 12:06 UTC NOAA

TAF LZKZ 241115Z 2412/2512 22008KT CAVOK
TEMPO 2417/2419 36004KT

Example: see airport list